sensor_id;sensor_type;location;lat;lon;timestamp;P1;durP1;ratioP1;P2;durP2;ratioP2
43142;SDS011;28750;59.842;17.584;2023-08-21T00:01:44;5.05;;;4.57;;
43142;SDS011;28750;59.842;17.584;2023-08-21T00:04:11;4.90;;;4.47;;
43142;SDS011;28750;59.842;17.584;2023-08-21T00:06:38;5.90;;;5.18;;
43142;SDS011;28750;59.842;17.584;2023-08-21T00:09:05;5.55;;;5.07;;
43142;SDS011;28750;59.842;17.584;2023-08-21T00:11:33;5.78;;;5.28;;
43142;SDS011;28750;59.842;17.584;2023-08-21T00:14:01;7.35;;;4.60;;
43142;SDS011;28750;59.842;17.584;2023-08-21T00:16:28;5.80;;;5.18;;
43142;SDS011;28750;59.842;17.584;2023-08-21T00:18:55;5.60;;;4.45;;
43142;SDS011;28750;59.842;17.584;2023-08-21T00:21:23;6.07;;;4.47;;
43142;SDS011;28750;59.842;17.584;2023-08-21T00:23:50;8.15;;;4.70;;
43142;SDS011;28750;59.842;17.584;2023-08-21T00:26:17;8.35;;;4.40;;
43142;SDS011;28750;59.842;17.584;2023-08-21T00:28:44;5.15;;;4.75;;
43142;SDS011;28750;59.842;17.584;2023-08-21T00:31:11;5.43;;;4.78;;
43142;SDS011;28750;59.842;17.584;2023-08-21T00:33:38;6.00;;;4.82;;
43142;SDS011;28750;59.842;17.584;2023-08-21T00:36:06;7.38;;;4.70;;
43142;SDS011;28750;59.842;17.584;2023-08-21T00:38:33;5.72;;;5.10;;
43142;SDS011;28750;59.842;17.584;2023-08-21T00:41:00;7.22;;;5.10;;
43142;SDS011;28750;59.842;17.584;2023-08-21T00:43:27;5.85;;;5.25;;
43142;SDS011;28750;59.842;17.584;2023-08-21T00:45:54;6.45;;;5.85;;
43142;SDS011;28750;59.842;17.584;2023-08-21T00:48:21;5.68;;;5.18;;
43142;SDS011;28750;59.842;17.584;2023-08-21T00:50:49;5.88;;;5.32;;
43142;SDS011;28750;59.842;17.584;2023-08-21T00:53:17;5.35;;;4.85;;
43142;SDS011;28750;59.842;17.584;2023-08-21T00:55:44;9.15;;;5.60;;
43142;SDS011;28750;59.842;17.584;2023-08-21T00:58:12;8.93;;;5.80;;
43142;SDS011;28750;59.842;17.584;2023-08-21T01:00:40;6.38;;;5.80;;
43142;SDS011;28750;59.842;17.584;2023-08-21T01:03:08;6.85;;;5.40;;
43142;SDS011;28750;59.842;17.584;2023-08-21T01:05:35;8.68;;;5.50;;
43142;SDS011;28750;59.842;17.584;2023-08-21T01:08:04;6.90;;;5.40;;
43142;SDS011;28750;59.842;17.584;2023-08-21T01:10:45;7.35;;;4.72;;
43142;SDS011;28750;59.842;17.584;2023-08-21T01:13:43;6.90;;;6.15;;
43142;SDS011;28750;59.842;17.584;2023-08-21T01:16:16;6.65;;;5.88;;
43142;SDS011;28750;59.842;17.584;2023-08-21T01:18:46;7.45;;;5.40;;
43142;SDS011;28750;59.842;17.584;2023-08-21T01:21:15;8.57;;;4.85;;
43142;SDS011;28750;59.842;17.584;2023-08-21T01:23:43;7.88;;;5.63;;
43142;SDS011;28750;59.842;17.584;2023-08-21T01:26:11;6.18;;;5.57;;
43142;SDS011;28750;59.842;17.584;2023-08-21T01:28:38;7.05;;;5.53;;
43142;SDS011;28750;59.842;17.584;2023-08-21T01:31:14;6.97;;;6.28;;
43142;SDS011;28750;59.842;17.584;2023-08-21T01:33:55;8.45;;;5.85;;
43142;SDS011;28750;59.842;17.584;2023-08-21T01:36:25;7.22;;;5.63;;
43142;SDS011;28750;59.842;17.584;2023-08-21T01:38:54;10.00;;;5.63;;
43142;SDS011;28750;59.842;17.584;2023-08-21T01:41:24;7.03;;;6.05;;
43142;SDS011;28750;59.842;17.584;2023-08-21T01:43:52;7.30;;;6.07;;
43142;SDS011;28750;59.842;17.584;2023-08-21T01:46:19;7.03;;;5.70;;
43142;SDS011;28750;59.842;17.584;2023-08-21T01:48:46;5.70;;;5.20;;
43142;SDS011;28750;59.842;17.584;2023-08-21T01:51:13;6.20;;;4.82;;
43142;SDS011;28750;59.842;17.584;2023-08-21T01:53:40;7.03;;;6.30;;
43142;SDS011;28750;59.842;17.584;2023-08-21T01:56:08;7.28;;;6.57;;
43142;SDS011;28750;59.842;17.584;2023-08-21T01:58:35;6.85;;;5.50;;
43142;SDS011;28750;59.842;17.584;2023-08-21T02:01:02;6.00;;;5.40;;
43142;SDS011;28750;59.842;17.584;2023-08-21T02:03:30;6.28;;;5.43;;
43142;SDS011;28750;59.842;17.584;2023-08-21T02:05:57;5.47;;;4.90;;
43142;SDS011;28750;59.842;17.584;2023-08-21T02:08:25;6.18;;;4.93;;
43142;SDS011;28750;59.842;17.584;2023-08-21T02:10:57;6.72;;;5.78;;
43142;SDS011;28750;59.842;17.584;2023-08-21T02:13:24;5.32;;;4.82;;
43142;SDS011;28750;59.842;17.584;2023-08-21T02:15:51;6.82;;;6.07;;
43142;SDS011;28750;59.842;17.584;2023-08-21T02:18:18;9.98;;;5.45;;
43142;SDS011;28750;59.842;17.584;2023-08-21T02:20:46;8.45;;;5.07;;
43142;SDS011;28750;59.842;17.584;2023-08-21T02:23:14;7.35;;;6.32;;
43142;SDS011;28750;59.842;17.584;2023-08-21T02:25:41;6.40;;;5.40;;
43142;SDS011;28750;59.842;17.584;2023-08-21T02:28:08;6.13;;;5.45;;
43142;SDS011;28750;59.842;17.584;2023-08-21T02:30:36;10.07;;;6.22;;
43142;SDS011;28750;59.842;17.584;2023-08-21T02:35:33;9.45;;;7.40;;
43142;SDS011;28750;59.842;17.584;2023-08-21T02:38:01;11.43;;;7.72;;
43142;SDS011;28750;59.842;17.584;2023-08-21T02:40:28;14.02;;;8.52;;
43142;SDS011;28750;59.842;17.584;2023-08-21T02:42:55;12.18;;;8.43;;
43142;SDS011;28750;59.842;17.584;2023-08-21T02:45:23;10.32;;;8.85;;
43142;SDS011;28750;59.842;17.584;2023-08-21T02:47:50;12.48;;;8.25;;
43142;SDS011;28750;59.842;17.584;2023-08-21T02:50:17;11.55;;;8.48;;
43142;SDS011;28750;59.842;17.584;2023-08-21T02:52:44;10.50;;;7.75;;
43142;SDS011;28750;59.842;17.584;2023-08-21T02:55:11;13.88;;;8.35;;
43142;SDS011;28750;59.842;17.584;2023-08-21T02:57:39;12.02;;;7.93;;
43142;SDS011;28750;59.842;17.584;2023-08-21T03:00:06;11.13;;;7.75;;
43142;SDS011;28750;59.842;17.584;2023-08-21T03:02:34;9.82;;;8.57;;
43142;SDS011;28750;59.842;17.584;2023-08-21T03:05:01;11.15;;;8.07;;
43142;SDS011;28750;59.842;17.584;2023-08-21T03:07:28;12.30;;;8.82;;
43142;SDS011;28750;59.842;17.584;2023-08-21T03:09:55;12.00;;;8.57;;
43142;SDS011;28750;59.842;17.584;2023-08-21T03:12:22;16.20;;;9.18;;
43142;SDS011;28750;59.842;17.584;2023-08-21T03:14:50;12.40;;;8.65;;
43142;SDS011;28750;59.842;17.584;2023-08-21T03:17:17;9.60;;;7.43;;
43142;SDS011;28750;59.842;17.584;2023-08-21T03:19:44;10.13;;;7.90;;
43142;SDS011;28750;59.842;17.584;2023-08-21T03:22:11;9.27;;;7.80;;
43142;SDS011;28750;59.842;17.584;2023-08-21T03:24:39;10.85;;;7.70;;
43142;SDS011;28750;59.842;17.584;2023-08-21T03:27:06;12.32;;;8.80;;
43142;SDS011;28750;59.842;17.584;2023-08-21T03:29:33;13.65;;;8.88;;
43142;SDS011;28750;59.842;17.584;2023-08-21T03:32:00;11.10;;;7.90;;
43142;SDS011;28750;59.842;17.584;2023-08-21T03:34:27;13.93;;;9.30;;
43142;SDS011;28750;59.842;17.584;2023-08-21T03:36:54;12.90;;;9.48;;
43142;SDS011;28750;59.842;17.584;2023-08-21T03:39:21;11.40;;;9.13;;
43142;SDS011;28750;59.842;17.584;2023-08-21T03:41:48;11.18;;;9.35;;
43142;SDS011;28750;59.842;17.584;2023-08-21T03:44:15;12.77;;;9.02;;
43142;SDS011;28750;59.842;17.584;2023-08-21T03:46:42;12.18;;;8.82;;
43142;SDS011;28750;59.842;17.584;2023-08-21T03:49:09;12.68;;;9.15;;
43142;SDS011;28750;59.842;17.584;2023-08-21T03:51:37;13.00;;;9.38;;
43142;SDS011;28750;59.842;17.584;2023-08-21T03:54:04;11.48;;;9.75;;
43142;SDS011;28750;59.842;17.584;2023-08-21T03:56:32;16.02;;;10.48;;
43142;SDS011;28750;59.842;17.584;2023-08-21T03:58:59;12.38;;;10.07;;
43142;SDS011;28750;59.842;17.584;2023-08-21T04:01:26;12.25;;;10.27;;
43142;SDS011;28750;59.842;17.584;2023-08-21T04:03:53;12.82;;;9.98;;
43142;SDS011;28750;59.842;17.584;2023-08-21T04:06:20;14.27;;;9.40;;
43142;SDS011;28750;59.842;17.584;2023-08-21T04:08:47;13.23;;;10.32;;
43142;SDS011;28750;59.842;17.584;2023-08-21T04:11:15;11.60;;;10.02;;
43142;SDS011;28750;59.842;17.584;2023-08-21T04:13:42;11.75;;;9.68;;
43142;SDS011;28750;59.842;17.584;2023-08-21T04:16:09;10.82;;;9.57;;
43142;SDS011;28750;59.842;17.584;2023-08-21T04:18:37;17.17;;;10.38;;
43142;SDS011;28750;59.842;17.584;2023-08-21T04:21:04;10.65;;;9.55;;
43142;SDS011;28750;59.842;17.584;2023-08-21T04:23:32;13.82;;;9.75;;
43142;SDS011;28750;59.842;17.584;2023-08-21T04:26:02;15.55;;;9.75;;
43142;SDS011;28750;59.842;17.584;2023-08-21T04:28:31;17.50;;;10.25;;
43142;SDS011;28750;59.842;17.584;2023-08-21T04:30:59;17.58;;;11.13;;
43142;SDS011;28750;59.842;17.584;2023-08-21T04:33:27;15.85;;;9.70;;
43142;SDS011;28750;59.842;17.584;2023-08-21T04:35:55;15.27;;;9.55;;
43142;SDS011;28750;59.842;17.584;2023-08-21T04:38:22;12.20;;;8.55;;
43142;SDS011;28750;59.842;17.584;2023-08-21T04:40:49;13.20;;;9.85;;
43142;SDS011;28750;59.842;17.584;2023-08-21T04:43:17;12.25;;;8.88;;
43142;SDS011;28750;59.842;17.584;2023-08-21T04:45:48;11.15;;;8.40;;
43142;SDS011;28750;59.842;17.584;2023-08-21T04:48:15;14.25;;;9.55;;
43142;SDS011;28750;59.842;17.584;2023-08-21T04:50:43;18.75;;;9.90;;
43142;SDS011;28750;59.842;17.584;2023-08-21T04:53:10;13.68;;;8.77;;
43142;SDS011;28750;59.842;17.584;2023-08-21T04:55:37;11.07;;;8.75;;
43142;SDS011;28750;59.842;17.584;2023-08-21T04:58:05;12.77;;;8.25;;
43142;SDS011;28750;59.842;17.584;2023-08-21T05:00:33;12.40;;;7.45;;
43142;SDS011;28750;59.842;17.584;2023-08-21T05:03:00;9.20;;;7.60;;
43142;SDS011;28750;59.842;17.584;2023-08-21T05:05:27;7.55;;;6.68;;
43142;SDS011;28750;59.842;17.584;2023-08-21T05:07:55;13.90;;;7.78;;
43142;SDS011;28750;59.842;17.584;2023-08-21T05:10:22;10.35;;;8.07;;
43142;SDS011;28750;59.842;17.584;2023-08-21T05:12:49;9.10;;;7.22;;
43142;SDS011;28750;59.842;17.584;2023-08-21T05:15:16;12.77;;;7.07;;
43142;SDS011;28750;59.842;17.584;2023-08-21T05:17:43;8.80;;;6.68;;
43142;SDS011;28750;59.842;17.584;2023-08-21T05:20:10;8.75;;;6.85;;
43142;SDS011;28750;59.842;17.584;2023-08-21T05:22:40;7.63;;;6.80;;
43142;SDS011;28750;59.842;17.584;2023-08-21T05:25:07;9.30;;;7.03;;
43142;SDS011;28750;59.842;17.584;2023-08-21T05:27:35;9.10;;;7.35;;
43142;SDS011;28750;59.842;17.584;2023-08-21T05:30:02;10.23;;;6.82;;
43142;SDS011;28750;59.842;17.584;2023-08-21T05:32:30;13.32;;;6.75;;
43142;SDS011;28750;59.842;17.584;2023-08-21T05:34:57;9.98;;;7.18;;
43142;SDS011;28750;59.842;17.584;2023-08-21T05:37:24;10.10;;;6.80;;
43142;SDS011;28750;59.842;17.584;2023-08-21T05:39:52;9.63;;;6.22;;
43142;SDS011;28750;59.842;17.584;2023-08-21T05:42:19;8.85;;;6.50;;
43142;SDS011;28750;59.842;17.584;2023-08-21T05:44:46;11.32;;;6.97;;
43142;SDS011;28750;59.842;17.584;2023-08-21T05:47:13;13.02;;;7.15;;
43142;SDS011;28750;59.842;17.584;2023-08-21T05:49:40;12.52;;;7.05;;
43142;SDS011;28750;59.842;17.584;2023-08-21T05:52:08;11.75;;;6.10;;
43142;SDS011;28750;59.842;17.584;2023-08-21T05:54:35;12.48;;;5.97;;
43142;SDS011;28750;59.842;17.584;2023-08-21T05:57:03;12.15;;;7.20;;
43142;SDS011;28750;59.842;17.584;2023-08-21T05:59:30;11.32;;;6.57;;
43142;SDS011;28750;59.842;17.584;2023-08-21T06:01:58;8.40;;;6.72;;
43142;SDS011;28750;59.842;17.584;2023-08-21T06:04:26;12.13;;;7.30;;
43142;SDS011;28750;59.842;17.584;2023-08-21T06:06:53;9.55;;;6.40;;
43142;SDS011;28750;59.842;17.584;2023-08-21T06:09:20;11.23;;;7.07;;
43142;SDS011;28750;59.842;17.584;2023-08-21T06:11:47;11.27;;;6.75;;
43142;SDS011;28750;59.842;17.584;2023-08-21T06:14:14;13.13;;;6.95;;
43142;SDS011;28750;59.842;17.584;2023-08-21T06:16:41;8.07;;;6.55;;
43142;SDS011;28750;59.842;17.584;2023-08-21T06:19:10;11.13;;;6.57;;
43142;SDS011;28750;59.842;17.584;2023-08-21T06:21:37;13.63;;;6.45;;
43142;SDS011;28750;59.842;17.584;2023-08-21T06:24:04;9.18;;;6.00;;
43142;SDS011;28750;59.842;17.584;2023-08-21T06:26:31;10.40;;;5.90;;
43142;SDS011;28750;59.842;17.584;2023-08-21T06:28:58;10.95;;;5.78;;
43142;SDS011;28750;59.842;17.584;2023-08-21T06:31:25;7.50;;;5.85;;
43142;SDS011;28750;59.842;17.584;2023-08-21T06:33:52;10.70;;;6.10;;
43142;SDS011;28750;59.842;17.584;2023-08-21T06:36:19;11.65;;;6.70;;
43142;SDS011;28750;59.842;17.584;2023-08-21T06:38:46;9.93;;;5.28;;
43142;SDS011;28750;59.842;17.584;2023-08-21T06:41:13;7.85;;;5.82;;
43142;SDS011;28750;59.842;17.584;2023-08-21T06:43:40;10.15;;;6.32;;
43142;SDS011;28750;59.842;17.584;2023-08-21T06:46:07;8.32;;;5.40;;
43142;SDS011;28750;59.842;17.584;2023-08-21T06:48:37;9.77;;;5.30;;
43142;SDS011;28750;59.842;17.584;2023-08-21T06:51:05;9.27;;;5.40;;
43142;SDS011;28750;59.842;17.584;2023-08-21T06:53:33;8.55;;;5.03;;
43142;SDS011;28750;59.842;17.584;2023-08-21T06:56:01;11.40;;;6.38;;
43142;SDS011;28750;59.842;17.584;2023-08-21T06:58:28;10.93;;;5.30;;
43142;SDS011;28750;59.842;17.584;2023-08-21T07:00:55;9.68;;;5.45;;
43142;SDS011;28750;59.842;17.584;2023-08-21T07:03:22;7.60;;;4.97;;
43142;SDS011;28750;59.842;17.584;2023-08-21T07:05:56;8.60;;;4.95;;
43142;SDS011;28750;59.842;17.584;2023-08-21T07:08:24;13.55;;;4.78;;
43142;SDS011;28750;59.842;17.584;2023-08-21T07:10:52;7.45;;;4.57;;
43142;SDS011;28750;59.842;17.584;2023-08-21T07:13:19;8.00;;;5.00;;
43142;SDS011;28750;59.842;17.584;2023-08-21T07:15:46;9.73;;;4.47;;
43142;SDS011;28750;59.842;17.584;2023-08-21T07:18:14;10.80;;;5.57;;
43142;SDS011;28750;59.842;17.584;2023-08-21T07:20:41;8.80;;;5.25;;
43142;SDS011;28750;59.842;17.584;2023-08-21T07:23:08;12.45;;;5.50;;
43142;SDS011;28750;59.842;17.584;2023-08-21T07:25:35;8.90;;;4.57;;
43142;SDS011;28750;59.842;17.584;2023-08-21T07:28:03;12.02;;;4.85;;
43142;SDS011;28750;59.842;17.584;2023-08-21T07:30:30;9.13;;;4.25;;
43142;SDS011;28750;59.842;17.584;2023-08-21T07:32:57;9.35;;;4.57;;
43142;SDS011;28750;59.842;17.584;2023-08-21T07:35:24;8.32;;;4.80;;
43142;SDS011;28750;59.842;17.584;2023-08-21T07:37:51;7.80;;;4.55;;
43142;SDS011;28750;59.842;17.584;2023-08-21T07:40:18;9.73;;;4.47;;
43142;SDS011;28750;59.842;17.584;2023-08-21T07:42:45;13.32;;;4.90;;
43142;SDS011;28750;59.842;17.584;2023-08-21T07:45:12;9.40;;;4.38;;
43142;SDS011;28750;59.842;17.584;2023-08-21T07:47:40;6.63;;;4.60;;
43142;SDS011;28750;59.842;17.584;2023-08-21T07:50:07;6.93;;;4.65;;
43142;SDS011;28750;59.842;17.584;2023-08-21T07:52:35;8.23;;;4.78;;
43142;SDS011;28750;59.842;17.584;2023-08-21T07:55:03;11.18;;;4.40;;
43142;SDS011;28750;59.842;17.584;2023-08-21T07:57:30;9.98;;;4.90;;
43142;SDS011;28750;59.842;17.584;2023-08-21T07:59:57;12.98;;;5.88;;
43142;SDS011;28750;59.842;17.584;2023-08-21T08:02:24;6.78;;;4.75;;
43142;SDS011;28750;59.842;17.584;2023-08-21T08:04:51;10.25;;;5.28;;
43142;SDS011;28750;59.842;17.584;2023-08-21T08:07:18;8.88;;;4.93;;
43142;SDS011;28750;59.842;17.584;2023-08-21T08:09:45;11.93;;;5.28;;
43142;SDS011;28750;59.842;17.584;2023-08-21T08:12:13;8.27;;;4.63;;
43142;SDS011;28750;59.842;17.584;2023-08-21T08:14:40;10.13;;;5.03;;
43142;SDS011;28750;59.842;17.584;2023-08-21T08:17:07;7.82;;;4.60;;
43142;SDS011;28750;59.842;17.584;2023-08-21T08:19:34;6.07;;;4.18;;
43142;SDS011;28750;59.842;17.584;2023-08-21T08:22:01;6.03;;;4.07;;
43142;SDS011;28750;59.842;17.584;2023-08-21T08:24:28;5.57;;;3.88;;
43142;SDS011;28750;59.842;17.584;2023-08-21T08:26:55;11.45;;;4.18;;
43142;SDS011;28750;59.842;17.584;2023-08-21T08:29:22;8.07;;;4.03;;
43142;SDS011;28750;59.842;17.584;2023-08-21T08:31:49;7.10;;;3.97;;
43142;SDS011;28750;59.842;17.584;2023-08-21T08:34:16;7.30;;;3.72;;
43142;SDS011;28750;59.842;17.584;2023-08-21T08:36:45;11.45;;;4.30;;
43142;SDS011;28750;59.842;17.584;2023-08-21T08:39:12;6.78;;;3.40;;
43142;SDS011;28750;59.842;17.584;2023-08-21T08:41:43;11.30;;;4.13;;
43142;SDS011;28750;59.842;17.584;2023-08-21T08:44:17;17.02;;;4.03;;
43142;SDS011;28750;59.842;17.584;2023-08-21T08:46:46;5.68;;;3.65;;
43142;SDS011;28750;59.842;17.584;2023-08-21T08:49:14;7.05;;;3.90;;
43142;SDS011;28750;59.842;17.584;2023-08-21T08:51:41;10.27;;;3.90;;
43142;SDS011;28750;59.842;17.584;2023-08-21T08:54:09;6.85;;;3.30;;
43142;SDS011;28750;59.842;17.584;2023-08-21T08:56:38;3.70;;;3.30;;
43142;SDS011;28750;59.842;17.584;2023-08-21T08:59:07;8.25;;;3.08;;
43142;SDS011;28750;59.842;17.584;2023-08-21T09:01:35;7.63;;;3.63;;
43142;SDS011;28750;59.842;17.584;2023-08-21T09:04:02;6.22;;;3.67;;
43142;SDS011;28750;59.842;17.584;2023-08-21T09:06:29;6.65;;;3.42;;
43142;SDS011;28750;59.842;17.584;2023-08-21T09:08:59;6.20;;;3.47;;
43142;SDS011;28750;59.842;17.584;2023-08-21T09:11:26;8.73;;;4.47;;
43142;SDS011;28750;59.842;17.584;2023-08-21T09:13:54;8.85;;;3.53;;
43142;SDS011;28750;59.842;17.584;2023-08-21T09:16:23;9.20;;;3.92;;
43142;SDS011;28750;59.842;17.584;2023-08-21T09:18:52;5.20;;;3.15;;
43142;SDS011;28750;59.842;17.584;2023-08-21T09:21:23;8.65;;;4.05;;
43142;SDS011;28750;59.842;17.584;2023-08-21T09:23:58;5.78;;;3.15;;
43142;SDS011;28750;59.842;17.584;2023-08-21T09:26:29;3.83;;;3.22;;
43142;SDS011;28750;59.842;17.584;2023-08-21T09:28:58;5.05;;;2.90;;
43142;SDS011;28750;59.842;17.584;2023-08-21T09:31:32;5.63;;;2.90;;
43142;SDS011;28750;59.842;17.584;2023-08-21T09:34:01;5.80;;;2.85;;
43142;SDS011;28750;59.842;17.584;2023-08-21T09:36:30;5.20;;;2.90;;
43142;SDS011;28750;59.842;17.584;2023-08-21T09:38:58;5.90;;;3.25;;
43142;SDS011;28750;59.842;17.584;2023-08-21T09:41:26;6.18;;;2.90;;
43142;SDS011;28750;59.842;17.584;2023-08-21T09:43:58;3.42;;;2.97;;
43142;SDS011;28750;59.842;17.584;2023-08-21T09:46:26;6.20;;;2.63;;
43142;SDS011;28750;59.842;17.584;2023-08-21T09:48:54;5.35;;;2.50;;
43142;SDS011;28750;59.842;17.584;2023-08-21T09:51:21;3.70;;;2.55;;
43142;SDS011;28750;59.842;17.584;2023-08-21T09:53:49;5.25;;;2.63;;
43142;SDS011;28750;59.842;17.584;2023-08-21T09:56:19;4.50;;;2.97;;
43142;SDS011;28750;59.842;17.584;2023-08-21T09:58:49;7.15;;;2.58;;
43142;SDS011;28750;59.842;17.584;2023-08-21T10:01:17;6.38;;;2.75;;
43142;SDS011;28750;59.842;17.584;2023-08-21T10:06:18;5.60;;;2.67;;
43142;SDS011;28750;59.842;17.584;2023-08-21T10:08:46;6.65;;;2.90;;
43142;SDS011;28750;59.842;17.584;2023-08-21T10:11:17;4.90;;;2.47;;
43142;SDS011;28750;59.842;17.584;2023-08-21T10:13:47;8.38;;;2.92;;
43142;SDS011;28750;59.842;17.584;2023-08-21T10:16:16;4.90;;;2.83;;
43142;SDS011;28750;59.842;17.584;2023-08-21T10:18:45;5.88;;;2.70;;
43142;SDS011;28750;59.842;17.584;2023-08-21T10:21:17;7.78;;;2.85;;
43142;SDS011;28750;59.842;17.584;2023-08-21T10:23:51;4.97;;;2.35;;
43142;SDS011;28750;59.842;17.584;2023-08-21T10:26:22;5.40;;;2.40;;
43142;SDS011;28750;59.842;17.584;2023-08-21T10:34:01;6.47;;;2.40;;
43142;SDS011;28750;59.842;17.584;2023-08-21T10:39:22;7.10;;;2.50;;
43142;SDS011;28750;59.842;17.584;2023-08-21T10:41:56;5.85;;;2.33;;
43142;SDS011;28750;59.842;17.584;2023-08-21T10:49:50;6.00;;;2.20;;
43142;SDS011;28750;59.842;17.584;2023-08-21T10:54:54;3.47;;;1.98;;
43142;SDS011;28750;59.842;17.584;2023-08-21T10:57:25;4.28;;;2.20;;
43142;SDS011;28750;59.842;17.584;2023-08-21T11:02:22;7.18;;;2.28;;
43142;SDS011;28750;59.842;17.584;2023-08-21T11:04:50;2.55;;;1.60;;
43142;SDS011;28750;59.842;17.584;2023-08-21T11:07:18;4.53;;;2.30;;
43142;SDS011;28750;59.842;17.584;2023-08-21T11:09:46;6.28;;;2.20;;
43142;SDS011;28750;59.842;17.584;2023-08-21T11:12:15;3.95;;;2.03;;
43142;SDS011;28750;59.842;17.584;2023-08-21T11:14:46;6.47;;;1.83;;
43142;SDS011;28750;59.842;17.584;2023-08-21T11:17:14;8.90;;;2.65;;
43142;SDS011;28750;59.842;17.584;2023-08-21T11:19:43;6.07;;;1.92;;
43142;SDS011;28750;59.842;17.584;2023-08-21T11:22:11;3.60;;;1.95;;
43142;SDS011;28750;59.842;17.584;2023-08-21T11:24:48;3.85;;;2.28;;
43142;SDS011;28750;59.842;17.584;2023-08-21T11:27:19;3.58;;;1.65;;
43142;SDS011;28750;59.842;17.584;2023-08-21T11:29:51;6.80;;;1.80;;
43142;SDS011;28750;59.842;17.584;2023-08-21T11:32:19;3.28;;;1.80;;
43142;SDS011;28750;59.842;17.584;2023-08-21T11:34:49;3.88;;;1.83;;
43142;SDS011;28750;59.842;17.584;2023-08-21T11:37:17;4.85;;;1.85;;
43142;SDS011;28750;59.842;17.584;2023-08-21T11:42:18;4.10;;;1.67;;
43142;SDS011;28750;59.842;17.584;2023-08-21T11:44:54;4.35;;;1.73;;
43142;SDS011;28750;59.842;17.584;2023-08-21T11:47:23;5.40;;;1.73;;
43142;SDS011;28750;59.842;17.584;2023-08-21T11:49:56;6.05;;;2.28;;
43142;SDS011;28750;59.842;17.584;2023-08-21T11:52:23;5.60;;;1.98;;
43142;SDS011;28750;59.842;17.584;2023-08-21T11:54:51;5.25;;;1.80;;
43142;SDS011;28750;59.842;17.584;2023-08-21T11:57:21;7.72;;;2.03;;
43142;SDS011;28750;59.842;17.584;2023-08-21T11:59:52;5.47;;;1.90;;
43142;SDS011;28750;59.842;17.584;2023-08-21T12:02:27;6.80;;;1.80;;
43142;SDS011;28750;59.842;17.584;2023-08-21T12:05:01;4.03;;;2.10;;
43142;SDS011;28750;59.842;17.584;2023-08-21T12:07:32;4.53;;;1.73;;
43142;SDS011;28750;59.842;17.584;2023-08-21T12:10:00;8.00;;;2.58;;
43142;SDS011;28750;59.842;17.584;2023-08-21T12:12:28;4.03;;;1.88;;
43142;SDS011;28750;59.842;17.584;2023-08-21T12:14:55;6.18;;;2.08;;
43142;SDS011;28750;59.842;17.584;2023-08-21T12:17:22;4.72;;;2.00;;
43142;SDS011;28750;59.842;17.584;2023-08-21T12:19:49;3.10;;;2.05;;
43142;SDS011;28750;59.842;17.584;2023-08-21T12:22:16;4.60;;;2.00;;
43142;SDS011;28750;59.842;17.584;2023-08-21T12:24:43;5.47;;;2.08;;
43142;SDS011;28750;59.842;17.584;2023-08-21T12:27:10;4.20;;;2.00;;
43142;SDS011;28750;59.842;17.584;2023-08-21T12:29:37;3.85;;;1.83;;
43142;SDS011;28750;59.842;17.584;2023-08-21T12:32:05;3.60;;;1.95;;
43142;SDS011;28750;59.842;17.584;2023-08-21T12:34:32;2.95;;;1.60;;
43142;SDS011;28750;59.842;17.584;2023-08-21T12:36:59;3.35;;;1.80;;
43142;SDS011;28750;59.842;17.584;2023-08-21T12:39:26;5.70;;;2.10;;
43142;SDS011;28750;59.842;17.584;2023-08-21T12:41:53;5.03;;;2.13;;
43142;SDS011;28750;59.842;17.584;2023-08-21T12:44:20;3.00;;;1.45;;
43142;SDS011;28750;59.842;17.584;2023-08-21T12:46:47;3.55;;;1.60;;
43142;SDS011;28750;59.842;17.584;2023-08-21T12:49:16;1.38;;;1.20;;
43142;SDS011;28750;59.842;17.584;2023-08-21T12:51:43;3.90;;;1.38;;
43142;SDS011;28750;59.842;17.584;2023-08-21T12:54:10;2.15;;;1.20;;
43142;SDS011;28750;59.842;17.584;2023-08-21T12:56:37;4.00;;;1.25;;
43142;SDS011;28750;59.842;17.584;2023-08-21T12:59:05;3.60;;;1.30;;
43142;SDS011;28750;59.842;17.584;2023-08-21T13:01:32;6.22;;;1.33;;
43142;SDS011;28750;59.842;17.584;2023-08-21T13:04:01;2.75;;;1.30;;
43142;SDS011;28750;59.842;17.584;2023-08-21T13:06:28;3.15;;;1.20;;
43142;SDS011;28750;59.842;17.584;2023-08-21T13:08:55;2.03;;;1.15;;
43142;SDS011;28750;59.842;17.584;2023-08-21T13:11:22;4.00;;;1.10;;
43142;SDS011;28750;59.842;17.584;2023-08-21T13:13:49;2.45;;;0.93;;
43142;SDS011;28750;59.842;17.584;2023-08-21T13:16:16;2.28;;;0.90;;
43142;SDS011;28750;59.842;17.584;2023-08-21T13:18:43;4.35;;;1.00;;
43142;SDS011;28750;59.842;17.584;2023-08-21T13:21:10;3.85;;;1.15;;
43142;SDS011;28750;59.842;17.584;2023-08-21T13:23:37;4.30;;;1.42;;
43142;SDS011;28750;59.842;17.584;2023-08-21T13:26:04;4.38;;;0.98;;
43142;SDS011;28750;59.842;17.584;2023-08-21T13:28:32;4.40;;;1.10;;
43142;SDS011;28750;59.842;17.584;2023-08-21T13:31:00;4.80;;;1.10;;
43142;SDS011;28750;59.842;17.584;2023-08-21T13:33:28;2.58;;;1.00;;
43142;SDS011;28750;59.842;17.584;2023-08-21T13:35:55;1.88;;;1.00;;
43142;SDS011;28750;59.842;17.584;2023-08-21T13:38:22;2.28;;;0.90;;
43142;SDS011;28750;59.842;17.584;2023-08-21T13:40:49;2.65;;;1.30;;
43142;SDS011;28750;59.842;17.584;2023-08-21T13:43:16;2.28;;;1.35;;
43142;SDS011;28750;59.842;17.584;2023-08-21T13:45:43;2.20;;;0.90;;
43142;SDS011;28750;59.842;17.584;2023-08-21T13:48:10;4.97;;;1.80;;
43142;SDS011;28750;59.842;17.584;2023-08-21T13:50:38;2.55;;;1.52;;
43142;SDS011;28750;59.842;17.584;2023-08-21T13:53:05;4.18;;;1.13;;
43142;SDS011;28750;59.842;17.584;2023-08-21T13:55:32;4.93;;;1.27;;
43142;SDS011;28750;59.842;17.584;2023-08-21T13:57:59;5.13;;;1.70;;
43142;SDS011;28750;59.842;17.584;2023-08-21T14:00:27;5.85;;;1.45;;
43142;SDS011;28750;59.842;17.584;2023-08-21T14:02:54;4.55;;;1.08;;
43142;SDS011;28750;59.842;17.584;2023-08-21T14:05:21;3.33;;;1.23;;
43142;SDS011;28750;59.842;17.584;2023-08-21T14:07:48;2.85;;;1.10;;
43142;SDS011;28750;59.842;17.584;2023-08-21T14:10:15;2.70;;;1.23;;
43142;SDS011;28750;59.842;17.584;2023-08-21T14:12:42;4.82;;;1.10;;
43142;SDS011;28750;59.842;17.584;2023-08-21T14:15:09;1.60;;;0.82;;
43142;SDS011;28750;59.842;17.584;2023-08-21T14:17:36;3.03;;;1.05;;
43142;SDS011;28750;59.842;17.584;2023-08-21T14:20:04;24.90;;;1.77;;
43142;SDS011;28750;59.842;17.584;2023-08-21T14:22:32;3.63;;;1.20;;
43142;SDS011;28750;59.842;17.584;2023-08-21T14:24:59;4.25;;;1.20;;
43142;SDS011;28750;59.842;17.584;2023-08-21T14:27:27;2.55;;;1.23;;
43142;SDS011;28750;59.842;17.584;2023-08-21T14:29:54;3.95;;;1.25;;
43142;SDS011;28750;59.842;17.584;2023-08-21T14:32:22;3.03;;;1.13;;
43142;SDS011;28750;59.842;17.584;2023-08-21T14:34:49;2.55;;;1.35;;
43142;SDS011;28750;59.842;17.584;2023-08-21T14:37:18;1.85;;;1.05;;
43142;SDS011;28750;59.842;17.584;2023-08-21T14:39:46;4.38;;;1.15;;
43142;SDS011;28750;59.842;17.584;2023-08-21T14:42:13;4.05;;;1.65;;
43142;SDS011;28750;59.842;17.584;2023-08-21T14:44:40;4.63;;;1.30;;
43142;SDS011;28750;59.842;17.584;2023-08-21T14:47:07;2.72;;;1.42;;
43142;SDS011;28750;59.842;17.584;2023-08-21T14:49:35;2.45;;;1.10;;
43142;SDS011;28750;59.842;17.584;2023-08-21T14:52:02;3.05;;;1.27;;
43142;SDS011;28750;59.842;17.584;2023-08-21T14:54:30;4.20;;;1.48;;
43142;SDS011;28750;59.842;17.584;2023-08-21T14:56:59;3.90;;;1.25;;
43142;SDS011;28750;59.842;17.584;2023-08-21T14:59:26;4.45;;;1.30;;
43142;SDS011;28750;59.842;17.584;2023-08-21T15:01:53;3.15;;;1.30;;